createdAt,value
2018-12-19T00:00:54.042Z,0.85
2018-12-19T00:03:21.631Z,0.88
2018-12-19T00:05:49.244Z,0.85
2018-12-19T00:08:16.835Z,0.88
2018-12-19T00:10:44.453Z,0.85
2018-12-19T00:13:14.169Z,0.78
2018-12-19T00:15:41.911Z,0.78
2018-12-19T00:18:09.529Z,0.70
2018-12-19T00:20:37.119Z,0.69
2018-12-19T00:23:04.737Z,0.65
2018-12-19T00:25:32.323Z,0.71
2018-12-19T00:27:59.946Z,0.77
2018-12-19T00:30:27.546Z,0.78
2018-12-19T00:32:55.163Z,0.78
2018-12-19T00:35:22.761Z,0.77
2018-12-19T00:37:50.381Z,0.76
2018-12-19T00:40:17.976Z,0.88
2018-12-19T00:42:45.591Z,0.87
2018-12-19T00:45:13.182Z,0.83
2018-12-19T00:47:40.795Z,0.82
2018-12-19T00:50:08.477Z,0.75
2018-12-19T00:52:36.094Z,0.75
2018-12-19T00:55:04.544Z,0.76
2018-12-19T00:57:32.160Z,0.77
2018-12-19T00:59:59.763Z,0.76
2018-12-19T01:02:27.384Z,0.68
2018-12-19T01:04:54.976Z,0.67
2018-12-19T01:07:22.587Z,0.71
2018-12-19T01:09:50.175Z,0.70
2018-12-19T01:12:17.786Z,0.62
2018-12-19T01:14:45.373Z,0.59
2018-12-19T01:17:12.996Z,0.69
2018-12-19T01:19:40.668Z,0.74
2018-12-19T01:22:08.281Z,0.82
2018-12-19T01:24:35.879Z,0.78
2018-12-19T01:27:03.488Z,0.88
2018-12-19T01:29:31.076Z,0.88
2018-12-19T01:31:58.693Z,0.92
2018-12-19T01:34:26.280Z,0.99
2018-12-19T01:36:53.874Z,0.95
2018-12-19T01:39:22.606Z,0.90
2018-12-19T01:41:50.437Z,0.92
2018-12-19T01:44:18.048Z,0.91
2018-12-19T01:46:45.643Z,0.89
2018-12-19T01:49:13.255Z,0.83
2018-12-19T01:51:40.851Z,0.78
2018-12-19T01:54:08.466Z,0.75
2018-12-19T01:56:36.059Z,0.72
2018-12-19T01:59:03.674Z,0.68
2018-12-19T02:10:23.486Z,0.66
2018-12-19T02:12:51.079Z,0.77
2018-12-19T02:15:18.690Z,0.78
2018-12-19T02:17:46.282Z,0.75
2018-12-19T02:20:13.984Z,0.70
2018-12-19T02:22:41.583Z,0.65
2018-12-19T02:25:09.200Z,0.67
2018-12-19T02:27:36.795Z,0.60
2018-12-19T02:30:05.673Z,0.52
2018-12-19T02:32:33.281Z,0.53
2018-12-19T02:35:00.907Z,0.51
2018-12-19T02:40:25.658Z,0.51
2018-12-19T02:42:53.254Z,0.54
2018-12-19T02:45:20.867Z,0.58
2018-12-19T02:47:48.478Z,0.51
2018-12-19T02:50:16.091Z,0.57
2018-12-19T02:52:43.683Z,0.67
2018-12-19T02:55:11.299Z,0.65
2018-12-19T02:57:38.882Z,0.62
2018-12-19T03:00:07.063Z,0.57
2018-12-19T03:02:34.655Z,0.56
2018-12-19T03:05:02.271Z,0.56
2018-12-19T03:07:29.870Z,0.58
2018-12-19T03:09:57.485Z,0.61
2018-12-19T03:12:25.079Z,0.61
2018-12-19T03:14:52.693Z,0.61
2018-12-19T03:17:20.283Z,0.61
2018-12-19T03:19:47.896Z,0.61
2018-12-19T03:22:15.495Z,0.60
2018-12-19T03:24:43.087Z,0.58
2018-12-19T03:27:10.699Z,0.57
2018-12-19T03:29:38.300Z,0.61
2018-12-19T03:32:05.917Z,0.59
2018-12-19T03:34:33.512Z,0.55
2018-12-19T03:37:01.122Z,0.55
2018-12-19T03:39:28.717Z,0.63
2018-12-19T03:41:56.331Z,0.62
2018-12-19T03:44:23.934Z,0.59
2018-12-19T03:46:51.548Z,0.57
2018-12-19T03:49:19.154Z,0.51
2018-12-19T03:51:47.146Z,0.52
2018-12-19T03:54:14.768Z,0.52
2018-12-19T03:56:42.974Z,0.53
2018-12-19T03:59:10.572Z,0.57
2018-12-19T04:01:38.192Z,0.54
2018-12-19T04:04:05.787Z,0.48
2018-12-19T04:06:33.409Z,0.53
2018-12-19T04:09:01.006Z,0.57
2018-12-19T04:11:28.618Z,0.61
2018-12-19T04:13:56.212Z,0.55
2018-12-19T04:16:23.835Z,0.57
2018-12-19T04:18:51.439Z,0.54
2018-12-19T04:21:19.079Z,0.52
2018-12-19T04:23:46.673Z,0.58
2018-12-19T04:26:14.261Z,0.61
2018-12-19T04:28:41.878Z,0.64
2018-12-19T04:31:09.471Z,0.63
2018-12-19T04:33:37.268Z,0.63
2018-12-19T04:36:05.840Z,0.65
2018-12-19T04:38:33.556Z,0.70
2018-12-19T04:41:01.150Z,0.68
2018-12-19T04:43:28.773Z,0.66
2018-12-19T04:45:56.398Z,0.63
2018-12-19T04:48:24.018Z,0.66
2018-12-19T04:50:51.612Z,0.61
2018-12-19T04:53:19.223Z,0.63
2018-12-19T04:55:46.816Z,0.62
2018-12-19T04:58:14.431Z,0.63
2018-12-19T05:00:42.023Z,0.63
2018-12-19T05:03:09.641Z,0.65
2018-12-19T05:05:37.231Z,0.64
2018-12-19T05:08:05.028Z,0.67
2018-12-19T05:10:32.624Z,0.67
2018-12-19T05:13:01.334Z,0.65
2018-12-19T05:15:29.084Z,0.68
2018-12-19T05:17:56.698Z,0.72
2018-12-19T05:20:24.296Z,0.76
2018-12-19T05:22:51.911Z,0.71
2018-12-19T05:25:19.503Z,0.67
2018-12-19T05:27:47.128Z,0.68
2018-12-19T05:30:14.724Z,0.64
2018-12-19T05:32:42.346Z,0.64
2018-12-19T05:35:09.947Z,0.64
2018-12-19T05:37:37.558Z,0.62
2018-12-19T05:40:06.744Z,0.57
2018-12-19T05:42:34.362Z,0.66
2018-12-19T05:45:01.953Z,0.66
2018-12-19T05:47:29.769Z,0.65
2018-12-19T05:49:57.543Z,0.68
2018-12-19T05:52:26.169Z,0.64
2018-12-19T05:54:53.843Z,0.65
2018-12-19T05:57:21.823Z,0.68
2018-12-19T05:59:49.436Z,0.67
2018-12-19T06:02:17.031Z,0.69
2018-12-19T06:04:44.659Z,0.69
2018-12-19T06:07:12.252Z,0.72
2018-12-19T06:09:39.866Z,0.74
2018-12-19T06:12:07.458Z,0.72
2018-12-19T06:14:35.076Z,0.73
2018-12-19T06:17:02.671Z,0.72
2018-12-19T06:19:30.286Z,0.74
2018-12-19T06:21:57.879Z,0.74
2018-12-19T06:24:25.500Z,0.75
2018-12-19T06:26:53.096Z,0.75
2018-12-19T06:29:20.708Z,0.78
2018-12-19T06:31:48.295Z,0.80
2018-12-19T06:34:15.911Z,0.80
2018-12-19T06:36:43.507Z,0.83
2018-12-19T06:39:11.214Z,0.84
2018-12-19T06:41:38.806Z,0.85
2018-12-19T06:44:06.419Z,0.84
2018-12-19T06:46:34.024Z,0.86
2018-12-19T06:49:01.648Z,0.86
2018-12-19T06:51:29.244Z,0.85
2018-12-19T06:53:56.859Z,0.87
2018-12-19T06:56:24.469Z,0.89
2018-12-19T06:58:52.090Z,0.89
2018-12-19T07:01:19.683Z,0.88
2018-12-19T07:03:47.308Z,0.87
2018-12-19T07:06:14.899Z,0.84
2018-12-19T07:08:42.542Z,0.84
2018-12-19T07:11:10.141Z,0.80
2018-12-19T07:13:37.740Z,0.80
2018-12-19T07:16:05.359Z,0.81
2018-12-19T07:18:32.953Z,0.81
2018-12-19T07:21:00.650Z,0.79
2018-12-19T07:23:28.239Z,0.84
2018-12-19T07:25:55.858Z,0.83
2018-12-19T07:28:23.456Z,0.79
2018-12-19T07:30:51.075Z,0.84
2018-12-19T07:33:18.666Z,0.83
2018-12-19T07:35:46.283Z,0.83
2018-12-19T07:38:13.879Z,0.85
2018-12-19T07:40:45.664Z,0.90
2018-12-19T07:43:11.134Z,0.89
2018-12-19T07:45:38.753Z,0.88
2018-12-19T07:48:06.342Z,0.89
2018-12-19T07:50:33.960Z,0.90
2018-12-19T07:53:01.554Z,0.85
2018-12-19T07:55:31.146Z,0.90
2018-12-19T07:57:58.741Z,0.93
2018-12-19T08:00:27.607Z,0.93
2018-12-19T08:02:55.533Z,0.93
2018-12-19T08:05:26.110Z,0.98
2018-12-19T08:07:52.870Z,0.97
2018-12-19T08:10:20.483Z,0.97
2018-12-19T08:12:48.078Z,0.99
2018-12-19T08:15:15.664Z,1.01
2018-12-19T08:17:43.279Z,1.03
2018-12-19T08:20:10.869Z,1.02
2018-12-19T08:22:38.486Z,1.01
2018-12-19T08:25:06.155Z,1.03
2018-12-19T08:27:33.775Z,1.04
2018-12-19T08:30:01.375Z,1.05
2018-12-19T08:32:28.993Z,1.08
2018-12-19T08:34:56.590Z,1.07
2018-12-19T08:37:24.209Z,1.07
2018-12-19T08:39:51.803Z,1.07
2018-12-19T08:42:19.409Z,1.09
2018-12-19T08:44:46.990Z,1.16
2018-12-19T08:47:14.598Z,1.16
2018-12-19T08:49:42.187Z,1.17
2018-12-19T08:52:09.806Z,1.15
2018-12-19T08:54:37.401Z,1.17
2018-12-19T08:57:05.022Z,1.18
2018-12-19T08:59:32.610Z,1.19
2018-12-19T09:02:00.231Z,1.21
2018-12-19T09:04:27.820Z,1.25
2018-12-19T09:06:55.427Z,1.26
2018-12-19T09:09:23.016Z,1.26
2018-12-19T09:11:50.635Z,1.28
2018-12-19T09:14:18.237Z,1.28
2018-12-19T09:16:45.863Z,1.28
2018-12-19T09:19:13.463Z,1.32
2018-12-19T09:21:41.075Z,1.30
2018-12-19T09:24:08.665Z,1.33
2018-12-19T09:26:36.250Z,1.37
2018-12-19T09:29:03.870Z,1.39
2018-12-19T09:31:31.465Z,1.42
2018-12-19T09:33:59.084Z,1.45
2018-12-19T09:36:26.679Z,1.48
2018-12-19T09:38:54.298Z,1.50
2018-12-19T09:41:21.890Z,1.51
2018-12-19T09:43:49.504Z,1.55
2018-12-19T09:46:17.099Z,1.55
2018-12-19T09:48:44.718Z,1.56
2018-12-19T09:51:12.315Z,1.57
2018-12-19T09:53:39.935Z,1.59
2018-12-19T09:56:07.527Z,1.62
2018-12-19T09:58:35.139Z,1.64
2018-12-19T10:01:05.280Z,1.65
2018-12-19T10:03:32.386Z,1.67
2018-12-19T10:05:59.982Z,1.68
2018-12-19T10:08:27.599Z,1.71
2018-12-19T10:10:55.269Z,1.74
2018-12-19T10:13:22.879Z,1.76
2018-12-19T10:15:50.469Z,1.81
2018-12-19T10:18:18.081Z,1.81
2018-12-19T10:20:45.670Z,1.83
2018-12-19T10:23:13.278Z,1.84
2018-12-19T10:25:40.871Z,1.84
2018-12-19T10:28:08.497Z,1.86
2018-12-19T10:30:38.075Z,1.90
2018-12-19T10:33:05.690Z,1.95
2018-12-19T10:35:33.280Z,1.97
2018-12-19T10:38:00.888Z,1.97
2018-12-19T10:40:28.474Z,2.00
2018-12-19T10:42:56.061Z,2.02
2018-12-19T10:45:23.680Z,2.02
2018-12-19T10:47:51.276Z,1.98
2018-12-19T10:50:18.884Z,1.98
2018-12-19T10:52:46.473Z,2.03
2018-12-19T10:55:14.082Z,2.07
2018-12-19T10:57:41.676Z,2.09
2018-12-19T11:00:11.839Z,2.08
2018-12-19T11:02:39.436Z,2.10
2018-12-19T11:05:07.046Z,2.11
2018-12-19T11:07:34.641Z,2.11
2018-12-19T11:10:02.248Z,2.14
2018-12-19T11:12:29.835Z,2.08
2018-12-19T11:14:57.451Z,2.04
2018-12-19T11:17:25.043Z,2.02
2018-12-19T11:19:52.652Z,1.94
2018-12-19T11:22:20.772Z,1.91
2018-12-19T11:24:48.388Z,1.89
2018-12-19T11:27:15.981Z,1.85
2018-12-19T11:29:43.602Z,1.85
2018-12-19T11:32:11.192Z,1.85
2018-12-19T11:34:38.811Z,1.84
2018-12-19T11:37:06.401Z,1.84
2018-12-19T11:39:34.012Z,1.87
2018-12-19T11:42:01.603Z,1.88
2018-12-19T11:44:29.218Z,1.90
2018-12-19T11:46:56.811Z,1.91
2018-12-19T11:49:24.425Z,1.93
2018-12-19T11:51:52.024Z,1.95
2018-12-19T11:54:19.639Z,1.95
2018-12-19T11:56:47.234Z,1.93
2018-12-19T11:59:14.848Z,1.94
2018-12-19T12:01:42.449Z,1.95
2018-12-19T12:04:10.088Z,1.95
2018-12-19T12:06:37.679Z,1.94
2018-12-19T12:09:07.096Z,1.97
2018-12-19T12:11:34.866Z,1.97
2018-12-19T12:14:02.639Z,1.98
2018-12-19T12:16:30.248Z,2.00
2018-12-19T12:18:57.871Z,2.00
2018-12-19T12:21:25.486Z,2.02
2018-12-19T12:23:53.076Z,2.04
2018-12-19T12:26:20.693Z,2.05
2018-12-19T12:28:48.290Z,2.07
2018-12-19T12:31:15.920Z,2.06
2018-12-19T12:33:43.553Z,2.06
2018-12-19T12:36:11.166Z,2.07
2018-12-19T12:38:38.753Z,2.07
2018-12-19T12:41:06.378Z,2.07
2018-12-19T12:43:33.982Z,2.07
2018-12-19T12:46:01.594Z,2.07
2018-12-19T12:48:29.187Z,2.07
2018-12-19T12:50:56.795Z,2.08
2018-12-19T12:53:24.387Z,2.07
2018-12-19T12:55:52.009Z,2.05
2018-12-19T12:58:19.604Z,2.06
2018-12-19T13:00:47.224Z,2.05
2018-12-19T13:03:27.772Z,2.02
2018-12-19T13:06:21.874Z,1.97
2018-12-19T13:08:59.650Z,1.94
2018-12-19T13:11:27.551Z,1.93
2018-12-19T13:25:48.815Z,2.02
2018-12-19T13:28:16.427Z,2.06
2018-12-19T13:30:44.028Z,2.08
2018-12-19T13:33:11.642Z,2.10
2018-12-19T13:35:39.243Z,2.13
2018-12-19T13:38:06.856Z,2.13
2018-12-19T13:40:34.454Z,2.15
2018-12-19T13:43:02.065Z,2.15
2018-12-19T13:45:29.666Z,2.16
2018-12-19T13:47:57.283Z,2.17
2018-12-19T13:50:25.007Z,2.18
2018-12-19T13:52:52.738Z,2.19
2018-12-19T13:55:20.331Z,2.17
2018-12-19T13:57:47.951Z,2.20
2018-12-19T14:00:17.523Z,2.20
2018-12-19T14:02:45.139Z,2.24
2018-12-19T14:05:12.727Z,2.25
2018-12-19T14:07:40.319Z,2.28
2018-12-19T14:10:07.936Z,2.29
2018-12-19T14:12:35.527Z,2.31
2018-12-19T14:15:03.419Z,2.32
2018-12-19T14:17:31.013Z,2.34
2018-12-19T14:19:58.635Z,2.39
2018-12-19T14:22:26.226Z,2.43
2018-12-19T14:24:53.840Z,2.47
2018-12-19T14:27:21.435Z,2.52
2018-12-19T14:29:49.048Z,2.54
2018-12-19T14:32:16.646Z,2.55
2018-12-19T14:34:44.262Z,2.57
2018-12-19T14:37:11.850Z,2.56
2018-12-19T14:39:39.466Z,2.56
2018-12-19T14:42:07.066Z,2.55
2018-12-19T14:44:34.689Z,2.53
2018-12-19T14:47:02.278Z,2.55
2018-12-19T14:49:29.902Z,2.53
2018-12-19T14:51:57.497Z,2.53
2018-12-19T14:54:25.112Z,2.50
2018-12-19T14:56:52.711Z,2.50
2018-12-19T14:59:20.333Z,2.50
2018-12-19T15:01:47.922Z,2.50
2018-12-19T15:04:15.534Z,2.51
2018-12-19T15:06:43.128Z,2.53
2018-12-19T15:09:10.736Z,2.54
2018-12-19T15:11:38.333Z,2.55
2018-12-19T15:14:05.950Z,2.52
2018-12-19T15:16:33.552Z,2.51
2018-12-19T15:19:01.166Z,2.50
2018-12-19T15:21:28.764Z,2.49
2018-12-19T15:23:56.380Z,2.49
2018-12-19T15:26:24.016Z,2.49
2018-12-19T15:28:51.907Z,2.48
2018-12-19T15:31:19.498Z,2.48
2018-12-19T15:33:47.180Z,2.47
2018-12-19T15:36:14.798Z,2.48
2018-12-19T15:38:42.400Z,2.46
2018-12-19T15:41:10.011Z,2.47
2018-12-19T15:43:37.607Z,2.46
2018-12-19T15:46:05.231Z,2.46
2018-12-19T15:48:32.830Z,2.45
2018-12-19T15:51:00.450Z,2.46
2018-12-19T15:53:28.042Z,2.46
2018-12-19T15:55:55.660Z,2.48
2018-12-19T15:58:23.250Z,2.48
2018-12-19T16:00:50.862Z,2.48
2018-12-19T16:03:18.454Z,2.49
2018-12-19T16:05:46.084Z,2.49
2018-12-19T16:08:13.679Z,2.49
2018-12-19T16:10:41.298Z,2.50
2018-12-19T16:13:08.898Z,2.51
2018-12-19T16:15:36.521Z,2.52
2018-12-19T16:18:04.115Z,2.51
2018-12-19T16:20:31.734Z,2.55
2018-12-19T16:22:59.322Z,2.54
2018-12-19T16:25:26.931Z,2.57
2018-12-19T16:27:54.519Z,2.56
2018-12-19T16:30:22.150Z,2.57
2018-12-19T16:32:49.752Z,2.58
2018-12-19T16:35:17.374Z,2.59
2018-12-19T16:37:44.963Z,2.59
2018-12-19T16:40:12.584Z,2.62
2018-12-19T16:42:45.885Z,2.62
2018-12-19T16:45:09.999Z,2.62
2018-12-19T16:47:37.593Z,2.63
2018-12-19T16:50:06.052Z,2.64
2018-12-19T16:52:33.662Z,2.66
2018-12-19T16:55:01.260Z,2.64
2018-12-19T16:57:28.879Z,2.65
2018-12-19T16:59:56.480Z,2.66
2018-12-19T17:02:24.095Z,2.65
2018-12-19T17:04:51.688Z,2.63
2018-12-19T17:07:19.304Z,2.61
2018-12-19T17:09:46.899Z,2.62
2018-12-19T17:12:14.519Z,2.62
2018-12-19T17:14:42.103Z,2.63
2018-12-19T17:17:09.719Z,2.65
2018-12-19T17:19:37.374Z,2.66
2018-12-19T17:22:05.063Z,2.69
2018-12-19T17:24:38.330Z,2.70
2018-12-19T17:27:05.949Z,2.70
2018-12-19T17:29:33.542Z,2.70
2018-12-19T17:32:01.243Z,2.70
2018-12-19T17:34:28.835Z,2.70
2018-12-19T17:36:56.487Z,2.72
2018-12-19T17:39:24.085Z,2.74
2018-12-19T17:41:51.703Z,2.75
2018-12-19T17:44:19.299Z,2.77
2018-12-19T17:46:46.925Z,2.78
2018-12-19T17:49:14.522Z,2.79
2018-12-19T17:51:42.139Z,2.80
2018-12-19T17:54:09.736Z,2.81
2018-12-19T17:56:37.427Z,2.82
2018-12-19T17:59:05.107Z,2.84
2018-12-19T18:01:32.720Z,2.85
2018-12-19T18:04:00.319Z,2.84
2018-12-19T18:06:27.985Z,2.86
2018-12-19T18:08:55.584Z,2.86
2018-12-19T18:11:23.183Z,2.85
2018-12-19T18:13:51.185Z,2.84
2018-12-19T18:16:18.773Z,2.84
2018-12-19T18:18:46.463Z,2.84
2018-12-19T18:21:14.059Z,2.84
2018-12-19T18:23:41.681Z,2.83
2018-12-19T18:26:09.283Z,2.85
2018-12-19T18:28:36.897Z,2.85
2018-12-19T18:31:04.495Z,2.84
2018-12-19T18:33:32.118Z,2.85
2018-12-19T18:35:59.711Z,2.84
2018-12-19T18:38:27.323Z,2.83
2018-12-19T18:40:54.924Z,2.84
2018-12-19T18:43:22.544Z,2.83
2018-12-19T18:45:50.135Z,2.82
2018-12-19T18:48:17.755Z,2.81
2018-12-19T18:50:45.351Z,2.79
2018-12-19T18:53:13.304Z,2.76
2018-12-19T18:55:41.106Z,2.73
2018-12-19T18:58:08.727Z,2.66
2018-12-19T19:00:36.323Z,2.58
2018-12-19T19:03:04.612Z,2.47
2018-12-19T19:05:32.232Z,2.44
2018-12-19T19:07:59.918Z,2.41
2018-12-19T19:10:27.584Z,2.40
2018-12-19T19:12:55.180Z,2.34
2018-12-19T19:15:22.803Z,2.30
2018-12-19T19:17:50.399Z,2.27
2018-12-19T19:20:18.021Z,2.28
2018-12-19T19:22:45.620Z,2.27
2018-12-19T19:25:13.234Z,2.25
2018-12-19T19:27:40.823Z,2.27
2018-12-19T19:30:09.100Z,2.24
2018-12-19T19:32:36.773Z,2.22
2018-12-19T19:35:05.239Z,2.23
2018-12-19T19:37:33.112Z,2.21
2018-12-19T19:40:00.751Z,2.19
2018-12-19T19:42:28.396Z,2.14
2018-12-19T19:44:56.014Z,2.11
2018-12-19T19:47:23.609Z,2.10
2018-12-19T19:49:51.227Z,2.07
2018-12-19T19:52:18.819Z,2.05
2018-12-19T19:54:46.436Z,2.04
2018-12-19T19:57:14.046Z,2.02
2018-12-19T19:59:41.672Z,2.02
2018-12-19T20:02:09.269Z,1.99
2018-12-19T20:04:36.892Z,1.98
2018-12-19T20:07:04.481Z,2.00
2018-12-19T20:09:32.098Z,2.00
2018-12-19T20:12:00.553Z,2.00
2018-12-19T20:14:28.169Z,2.01
2018-12-19T20:17:01.072Z,2.01
2018-12-19T20:19:29.250Z,2.00
2018-12-19T20:21:56.847Z,1.97
2018-12-19T20:24:24.467Z,1.92
2018-12-19T20:26:52.059Z,1.87
2018-12-19T20:29:19.663Z,1.83
2018-12-19T20:31:47.274Z,1.84
2018-12-19T20:34:14.882Z,1.88
2018-12-19T20:36:42.496Z,1.91
2018-12-19T20:39:10.091Z,1.95
2018-12-19T20:41:37.710Z,1.96
2018-12-19T20:44:05.311Z,1.95
2018-12-19T20:46:32.927Z,1.94
2018-12-19T20:49:00.525Z,1.91
2018-12-19T20:51:28.228Z,1.88
2018-12-19T20:53:55.815Z,1.88
2018-12-19T20:56:23.433Z,1.88
2018-12-19T20:58:51.054Z,1.86
2018-12-19T21:01:18.781Z,1.84
2018-12-19T21:03:46.376Z,1.76
2018-12-19T21:06:13.996Z,1.68
2018-12-19T21:08:41.599Z,1.64
2018-12-19T21:11:09.221Z,1.54
2018-12-19T21:13:36.816Z,1.49
2018-12-19T21:16:04.437Z,1.45
2018-12-19T21:18:37.594Z,1.35
2018-12-19T21:21:05.208Z,1.27
2018-12-19T21:23:32.884Z,1.24
2018-12-19T21:26:00.504Z,1.25
2018-12-19T21:28:28.100Z,1.20
2018-12-19T21:30:55.727Z,1.13
2018-12-19T21:33:23.318Z,1.11
2018-12-19T21:35:50.931Z,1.03
2018-12-19T21:38:18.526Z,0.98
2018-12-19T21:40:46.150Z,1.12
2018-12-19T21:43:13.781Z,1.26
2018-12-19T21:45:41.397Z,1.37
2018-12-19T21:48:08.997Z,1.48
2018-12-19T21:50:36.618Z,1.45
2018-12-19T21:53:04.214Z,1.56
2018-12-19T21:55:31.903Z,1.64
2018-12-19T21:57:59.568Z,1.69
2018-12-19T22:00:27.810Z,1.81
2018-12-19T22:02:55.502Z,1.89
2018-12-19T22:05:23.298Z,1.92
2018-12-19T22:07:51.003Z,1.95
2018-12-19T22:10:18.595Z,1.95
2018-12-19T22:12:46.343Z,1.94
2018-12-19T22:15:14.017Z,1.97
2018-12-19T22:17:47.607Z,1.99
2018-12-19T22:20:15.233Z,2.00
2018-12-19T22:22:42.944Z,2.00
2018-12-19T22:25:10.687Z,2.03
2018-12-19T22:27:38.374Z,2.05
2018-12-19T22:30:07.445Z,2.09
2018-12-19T22:32:35.134Z,2.13
2018-12-19T22:35:02.728Z,2.13
2018-12-19T22:37:30.342Z,2.20
2018-12-19T22:39:58.024Z,2.25
2018-12-19T22:42:25.688Z,2.26
2018-12-19T22:44:53.287Z,2.30
2018-12-19T22:47:21.740Z,2.33
2018-12-19T22:49:49.519Z,2.39
2018-12-19T22:52:17.135Z,2.41
2018-12-19T22:54:44.750Z,2.46
2018-12-19T22:57:12.396Z,2.46
2018-12-19T22:59:40.006Z,2.50
2018-12-19T23:02:13.306Z,2.50
2018-12-19T23:04:41.007Z,2.52
2018-12-19T23:07:08.766Z,2.53
2018-12-19T23:09:36.386Z,2.53
2018-12-19T23:12:04.131Z,2.53
2018-12-19T23:14:31.808Z,2.51
2018-12-19T23:17:01.406Z,2.51
2018-12-19T23:19:28.999Z,2.50
2018-12-19T23:21:56.618Z,2.49
2018-12-19T23:24:24.291Z,2.51
2018-12-19T23:26:51.913Z,2.52
2018-12-19T23:29:19.507Z,2.51
2018-12-19T23:31:47.117Z,2.51
2018-12-19T23:34:14.709Z,2.50
2018-12-19T23:36:42.374Z,2.48
2018-12-19T23:39:10.162Z,2.46
2018-12-19T23:41:37.805Z,2.45
2018-12-19T23:44:05.491Z,2.45
2018-12-19T23:46:34.626Z,2.45
2018-12-19T23:49:02.421Z,2.46
2018-12-19T23:51:30.220Z,2.46
2018-12-19T23:53:58.043Z,2.49
2018-12-19T23:56:25.786Z,2.48
2018-12-19T23:58:53.409Z,2.46
